createdAt,value
2023-03-26T00:01:40.623Z,2.40
2023-03-26T00:04:08.395Z,5.07
2023-03-26T00:06:39.460Z,3.13
2023-03-26T00:09:09.981Z,3.40
2023-03-26T00:11:37.634Z,3.60
2023-03-26T00:14:06.475Z,3.30
2023-03-26T00:16:34.252Z,3.08
2023-03-26T00:19:02.519Z,3.38
2023-03-26T00:21:31.285Z,3.15
2023-03-26T00:24:01.097Z,4.47
2023-03-26T00:26:31.063Z,3.20
2023-03-26T00:29:00.265Z,3.47
2023-03-26T00:31:29.319Z,3.10
2023-03-26T00:33:57.712Z,4.55
2023-03-26T00:36:26.726Z,2.60
2023-03-26T00:38:55.388Z,3.58
2023-03-26T00:41:26.135Z,3.08
2023-03-26T00:43:58.702Z,2.42
2023-03-26T00:46:28.033Z,4.50
2023-03-26T00:49:00.581Z,3.78
2023-03-26T00:51:28.924Z,3.88
2023-03-26T00:53:57.854Z,4.40
2023-03-26T00:56:25.922Z,2.22
2023-03-26T00:58:53.579Z,2.35
2023-03-26T01:01:30.382Z,2.80
2023-03-26T01:04:31.966Z,2.20
2023-03-26T01:07:02.756Z,1.63
2023-03-26T01:09:34.859Z,2.78
2023-03-26T01:12:04.632Z,3.35
2023-03-26T01:14:32.423Z,2.00
2023-03-26T01:17:01.839Z,3.60
2023-03-26T01:19:38.241Z,2.35
2023-03-26T01:22:11.119Z,1.55
2023-03-26T01:24:41.059Z,1.90
2023-03-26T01:27:17.988Z,1.70
2023-03-26T01:29:53.567Z,2.25
2023-03-26T01:32:55.593Z,3.10
2023-03-26T01:35:38.625Z,3.47
2023-03-26T01:38:16.988Z,2.20
2023-03-26T01:40:52.211Z,1.80
2023-03-26T01:43:31.129Z,2.70
2023-03-26T01:46:01.685Z,1.90
2023-03-26T01:48:31.957Z,2.00
2023-03-26T01:50:59.362Z,2.92
2023-03-26T01:53:27.411Z,2.15
2023-03-26T01:56:05.895Z,1.83
2023-03-26T01:58:40.373Z,1.55
2023-03-26T02:01:19.526Z,1.80
2023-03-26T02:03:53.110Z,1.27
2023-03-26T02:06:26.168Z,2.30
2023-03-26T02:08:59.237Z,2.33
2023-03-26T02:11:35.560Z,2.38
2023-03-26T02:14:04.818Z,2.30
2023-03-26T02:19:00.305Z,1.70
2023-03-26T02:21:28.550Z,2.03
2023-03-26T02:24:03.726Z,2.10
2023-03-26T02:26:37.622Z,1.80
2023-03-26T02:29:12.479Z,1.92
2023-03-26T02:31:43.346Z,2.15
2023-03-26T02:34:10.904Z,2.03
2023-03-26T02:36:42.872Z,2.00
2023-03-26T02:39:10.977Z,2.08
2023-03-26T02:41:40.477Z,2.67
2023-03-26T02:44:12.623Z,1.58
2023-03-26T02:46:58.332Z,1.63
2023-03-26T02:49:44.710Z,1.55
2023-03-26T02:52:18.661Z,1.95
2023-03-26T02:54:48.706Z,1.63
2023-03-26T02:57:23.070Z,1.67
2023-03-26T03:00:09.111Z,1.60
2023-03-26T03:02:38.876Z,2.17
2023-03-26T03:05:31.397Z,1.60
2023-03-26T03:08:28.062Z,2.03
2023-03-26T03:11:26.900Z,2.03
2023-03-26T03:13:56.153Z,2.08
2023-03-26T03:16:26.436Z,2.35
2023-03-26T03:18:57.464Z,1.73
2023-03-26T03:21:29.436Z,1.88
2023-03-26T03:23:59.766Z,2.40
2023-03-26T03:26:29.725Z,2.00
2023-03-26T03:29:02.560Z,2.70
2023-03-26T03:34:03.178Z,1.60
2023-03-26T03:36:38.259Z,2.10
2023-03-26T03:39:13.095Z,1.70
2023-03-26T03:41:40.779Z,2.20
2023-03-26T03:44:14.136Z,1.77
2023-03-26T03:49:09.084Z,1.80
2023-03-26T03:51:38.319Z,1.92
2023-03-26T03:54:14.569Z,1.80
2023-03-26T03:56:48.603Z,1.67
2023-03-26T03:59:38.899Z,2.17
2023-03-26T04:02:39.644Z,2.35
2023-03-26T04:05:07.583Z,2.50
2023-03-26T04:07:37.153Z,2.38
2023-03-26T04:10:09.463Z,2.70
2023-03-26T04:12:59.860Z,2.97
2023-03-26T04:15:56.075Z,2.85
2023-03-26T04:18:24.299Z,2.38
2023-03-26T04:20:51.892Z,2.63
2023-03-26T04:23:24.471Z,2.28
2023-03-26T04:26:04.149Z,2.63
2023-03-26T04:28:54.266Z,2.80
2023-03-26T04:34:08.125Z,2.28
2023-03-26T04:36:46.226Z,2.50
2023-03-26T04:39:14.208Z,2.30
2023-03-26T04:42:09.897Z,2.00
2023-03-26T04:44:50.763Z,2.25
2023-03-26T04:47:20.103Z,2.63
2023-03-26T04:49:48.424Z,2.35
2023-03-26T04:52:17.660Z,2.25
2023-03-26T04:54:54.005Z,2.05
2023-03-26T04:57:27.691Z,1.83
2023-03-26T05:00:14.971Z,1.90
2023-03-26T05:02:45.836Z,2.22
2023-03-26T05:05:13.775Z,2.38
2023-03-26T05:07:42.273Z,1.70
2023-03-26T05:10:13.404Z,2.03
2023-03-26T05:12:51.246Z,2.28
2023-03-26T05:15:26.411Z,1.67
2023-03-26T05:17:55.679Z,2.20
2023-03-26T05:20:38.404Z,1.63
2023-03-26T05:23:08.032Z,2.30
2023-03-26T05:25:42.030Z,1.77
2023-03-26T05:28:28.336Z,2.53
2023-03-26T05:31:01.023Z,2.00
2023-03-26T05:33:34.249Z,1.77
2023-03-26T05:36:09.436Z,2.38
2023-03-26T05:38:37.484Z,1.98
2023-03-26T05:41:09.390Z,2.15
2023-03-26T05:43:41.597Z,2.83
2023-03-26T05:46:12.594Z,2.20
2023-03-26T05:48:41.542Z,2.30
2023-03-26T05:51:09.190Z,2.63
2023-03-26T05:53:41.440Z,2.30
2023-03-26T05:56:27.706Z,2.22
2023-03-26T05:59:16.511Z,1.80
2023-03-26T06:02:03.930Z,1.77
2023-03-26T06:04:42.657Z,1.92
2023-03-26T06:07:39.227Z,1.85
2023-03-26T06:10:19.203Z,1.70
2023-03-26T06:12:47.184Z,1.55
2023-03-26T06:15:15.504Z,2.05
2023-03-26T06:17:47.794Z,1.63
2023-03-26T06:20:33.782Z,1.90
2023-03-26T06:23:06.705Z,2.10
2023-03-26T06:25:46.611Z,1.80
2023-03-26T06:28:35.545Z,2.95
2023-03-26T06:31:20.708Z,1.40
2023-03-26T06:33:55.219Z,1.75
2023-03-26T06:36:24.407Z,1.95
2023-03-26T06:38:51.935Z,1.70
2023-03-26T06:41:19.411Z,1.80
2023-03-26T06:44:08.362Z,1.73
2023-03-26T06:46:54.650Z,1.38
2023-03-26T06:49:43.104Z,1.48
2023-03-26T06:52:33.194Z,1.90
2023-03-26T06:55:35.649Z,1.67
2023-03-26T06:58:29.424Z,2.03
2023-03-26T07:01:19.941Z,1.75
2023-03-26T07:04:05.729Z,1.67
2023-03-26T07:07:05.525Z,1.70
2023-03-26T07:10:12.963Z,1.52
2023-03-26T07:12:43.513Z,1.77
2023-03-26T07:15:49.289Z,1.83
2023-03-26T07:18:44.012Z,2.22
2023-03-26T07:21:17.357Z,1.60
2023-03-26T07:23:45.588Z,1.95
2023-03-26T07:26:38.361Z,2.00
2023-03-26T07:29:24.901Z,1.33
2023-03-26T07:32:34.351Z,1.95
2023-03-26T07:35:23.923Z,1.63
2023-03-26T07:38:33.295Z,1.90
2023-03-26T07:41:28.944Z,1.85
2023-03-26T07:47:04.680Z,1.20
2023-03-26T07:49:43.300Z,1.77
2023-03-26T07:52:23.875Z,1.70
2023-03-26T07:54:54.948Z,1.63
2023-03-26T07:58:05.750Z,1.70
2023-03-26T08:01:10.170Z,2.80
2023-03-26T08:03:53.239Z,1.65
2023-03-26T08:06:48.794Z,1.85
2023-03-26T08:09:32.533Z,2.10
2023-03-26T08:12:33.947Z,2.55
2023-03-26T08:15:12.383Z,1.73
2023-03-26T08:17:49.850Z,2.60
2023-03-26T08:20:31.000Z,2.45
2023-03-26T08:23:07.750Z,2.85
2023-03-26T08:25:44.936Z,2.63
2023-03-26T08:28:33.718Z,2.42
2023-03-26T08:31:03.073Z,2.40
2023-03-26T08:33:32.510Z,2.90
2023-03-26T08:35:59.973Z,2.30
2023-03-26T08:38:27.540Z,3.40
2023-03-26T08:41:29.040Z,3.13
2023-03-26T08:44:14.048Z,4.65
2023-03-26T08:47:11.149Z,4.20
2023-03-26T08:49:58.948Z,4.05
2023-03-26T08:52:54.020Z,3.70
2023-03-26T08:55:43.223Z,4.18
2023-03-26T09:01:22.126Z,3.83
2023-03-26T09:04:17.945Z,4.40
2023-03-26T09:07:19.063Z,4.35
2023-03-26T09:10:21.517Z,4.07
2023-03-26T09:13:14.551Z,2.85
2023-03-26T09:16:17.438Z,2.60
2023-03-26T09:19:12.686Z,2.05
2023-03-26T09:22:16.725Z,3.58
2023-03-26T09:25:08.594Z,6.30
2023-03-26T09:27:48.803Z,3.40
2023-03-26T09:31:02.483Z,3.40
2023-03-26T09:33:53.945Z,2.75
2023-03-26T09:36:33.026Z,2.40
2023-03-26T09:39:09.551Z,2.72
2023-03-26T09:41:43.723Z,2.80
2023-03-26T09:44:51.916Z,2.60
2023-03-26T09:47:43.099Z,1.95
2023-03-26T09:50:46.900Z,2.70
2023-03-26T09:53:28.143Z,2.88
2023-03-26T09:56:18.588Z,2.85
2023-03-26T09:59:18.163Z,1.70
2023-03-26T10:01:57.436Z,1.20
2023-03-26T10:04:42.066Z,1.45
2023-03-26T10:07:21.957Z,1.55
2023-03-26T10:09:57.663Z,1.35
2023-03-26T10:12:33.684Z,1.70
2023-03-26T10:15:12.895Z,1.77
2023-03-26T10:17:56.929Z,1.73
2023-03-26T10:20:33.995Z,1.60
2023-03-26T10:23:15.831Z,2.83
2023-03-26T10:25:56.260Z,1.40
2023-03-26T10:28:45.007Z,2.30
2023-03-26T10:31:42.659Z,1.38
2023-03-26T10:34:30.242Z,1.02
2023-03-26T10:37:08.240Z,1.33
2023-03-26T10:40:05.987Z,1.70
2023-03-26T10:42:50.478Z,1.33
2023-03-26T10:48:22.026Z,1.20
2023-03-26T10:51:06.231Z,1.10
2023-03-26T10:53:41.509Z,1.60
2023-03-26T10:56:17.090Z,1.65
2023-03-26T10:58:49.320Z,1.77
2023-03-26T11:01:28.090Z,1.75
2023-03-26T11:04:02.487Z,1.83
2023-03-26T11:06:42.936Z,0.80
2023-03-26T11:09:30.336Z,1.60
2023-03-26T11:12:25.442Z,1.35
2023-03-26T11:15:00.699Z,1.30
2023-03-26T11:17:39.461Z,1.10
2023-03-26T11:20:16.057Z,1.10
2023-03-26T11:22:56.580Z,2.53
2023-03-26T11:25:40.765Z,1.60
2023-03-26T11:28:25.293Z,0.90
2023-03-26T11:30:58.265Z,1.20
2023-03-26T11:33:32.804Z,1.38
2023-03-26T11:36:06.783Z,1.63
2023-03-26T11:38:39.531Z,1.40
2023-03-26T11:41:13.355Z,2.15
2023-03-26T11:43:53.999Z,1.00
2023-03-26T11:46:23.961Z,1.15
2023-03-26T11:48:58.094Z,1.75
2023-03-26T11:51:29.414Z,0.80
2023-03-26T11:53:59.152Z,0.95
2023-03-26T11:56:32.198Z,1.20
2023-03-26T11:59:05.568Z,1.25
2023-03-26T12:01:50.775Z,0.90
2023-03-26T12:04:24.977Z,1.05
2023-03-26T12:06:56.530Z,0.98
2023-03-26T12:09:26.641Z,0.90
2023-03-26T12:11:59.774Z,1.67
2023-03-26T12:14:29.705Z,1.30
2023-03-26T12:16:59.599Z,0.75
2023-03-26T12:19:28.989Z,0.93
2023-03-26T12:21:56.507Z,0.95
2023-03-26T12:27:01.987Z,0.90
2023-03-26T12:29:34.440Z,1.20
2023-03-26T12:32:07.753Z,0.82
2023-03-26T12:34:37.523Z,1.00
2023-03-26T12:37:07.016Z,0.68
2023-03-26T12:40:07.305Z,0.73
2023-03-26T12:44:45.243Z,1.23
2023-03-26T12:45:19.887Z,0.90
2023-03-26T12:47:59.727Z,1.00
2023-03-26T12:50:45.615Z,1.20
2023-03-26T12:53:33.721Z,1.10
2023-03-26T12:56:19.646Z,0.93
2023-03-26T12:59:04.095Z,1.00
2023-03-26T13:01:46.824Z,0.95
2023-03-26T13:04:30.055Z,0.88
2023-03-26T13:07:04.517Z,1.20
2023-03-26T13:10:19.893Z,1.63
2023-03-26T13:13:01.367Z,1.00
2023-03-26T13:15:57.378Z,0.60
2023-03-26T13:18:38.007Z,0.70
2023-03-26T13:21:10.974Z,0.98
2023-03-26T13:23:47.128Z,1.30
2023-03-26T13:26:34.206Z,1.05
2023-03-26T13:29:12.135Z,1.35
2023-03-26T13:31:45.607Z,0.70
2023-03-26T13:34:23.582Z,1.30
2023-03-26T13:37:06.496Z,0.93
2023-03-26T13:39:45.628Z,1.40
2023-03-26T13:42:25.430Z,0.93
2023-03-26T13:45:04.524Z,1.20
2023-03-26T13:47:36.943Z,1.60
2023-03-26T13:50:14.782Z,1.02
2023-03-26T13:52:46.414Z,0.85
2023-03-26T13:55:22.120Z,0.65
2023-03-26T13:57:56.858Z,1.15
2023-03-26T14:00:32.648Z,0.90
2023-03-26T14:03:06.729Z,1.15
2023-03-26T14:05:41.340Z,1.00
2023-03-26T14:08:17.146Z,1.10
2023-03-26T14:10:50.515Z,0.68
2023-03-26T14:13:22.449Z,0.90
2023-03-26T14:15:55.890Z,1.00
2023-03-26T14:18:30.272Z,1.23
2023-03-26T14:21:26.181Z,1.08
2023-03-26T14:24:17.519Z,1.20
2023-03-26T14:26:58.513Z,0.98
2023-03-26T14:29:31.308Z,1.10
2023-03-26T14:32:10.564Z,1.30
2023-03-26T14:34:52.692Z,1.05
2023-03-26T14:37:58.447Z,1.38
2023-03-26T14:40:56.748Z,1.40
2023-03-26T14:43:58.341Z,1.30
2023-03-26T14:46:39.087Z,1.20
2023-03-26T14:49:29.272Z,1.05
2023-03-26T14:52:05.930Z,1.30
2023-03-26T14:54:38.543Z,1.48
2023-03-26T14:57:23.891Z,1.50
2023-03-26T15:00:19.992Z,1.13
2023-03-26T15:03:40.735Z,1.08
2023-03-26T15:06:38.710Z,1.23
2023-03-26T15:09:50.929Z,1.00
2023-03-26T15:12:33.427Z,1.20
2023-03-26T15:15:30.704Z,1.35
2023-03-26T15:18:27.120Z,0.88
2023-03-26T15:21:34.343Z,1.30
2023-03-26T15:24:40.422Z,1.02
2023-03-26T15:27:29.176Z,1.00
2023-03-26T15:30:42.166Z,1.50
2023-03-26T15:33:41.808Z,1.30
2023-03-26T15:36:44.682Z,1.60
2023-03-26T15:39:59.613Z,1.38
2023-03-26T15:42:44.714Z,1.40
2023-03-26T15:45:34.627Z,1.80
2023-03-26T15:48:40.958Z,1.83
2023-03-26T15:51:24.530Z,1.45
2023-03-26T15:53:58.961Z,1.50
2023-03-26T15:56:44.049Z,1.23
2023-03-26T15:59:30.919Z,1.48
2023-03-26T16:02:10.015Z,1.58
2023-03-26T16:04:50.338Z,1.67
2023-03-26T16:07:50.069Z,1.40
2023-03-26T16:10:33.879Z,1.38
2023-03-26T16:13:36.685Z,1.40
2023-03-26T16:16:45.335Z,1.50
2023-03-26T16:19:36.234Z,1.42
2023-03-26T16:22:07.575Z,1.08
2023-03-26T16:24:39.878Z,0.95
2023-03-26T16:27:28.975Z,1.30
2023-03-26T16:32:40.356Z,1.70
2023-03-26T16:35:40.286Z,1.80
2023-03-26T16:38:13.359Z,2.05
2023-03-26T16:41:03.671Z,2.60
2023-03-26T16:43:46.743Z,2.45
2023-03-26T16:46:28.696Z,1.80
2023-03-26T16:49:06.670Z,7.10
2023-03-26T16:51:53.670Z,2.70
2023-03-26T16:54:28.138Z,3.70
2023-03-26T16:57:01.983Z,3.03
2023-03-26T17:00:07.733Z,1.90
2023-03-26T17:02:49.950Z,1.95
2023-03-26T17:05:24.714Z,1.90
2023-03-26T17:08:01.241Z,8.93
2023-03-26T17:10:36.221Z,7.18
2023-03-26T17:13:10.937Z,3.83
2023-03-26T17:15:47.011Z,3.80
2023-03-26T17:18:27.639Z,1.75
2023-03-26T17:21:02.148Z,0.90
2023-03-26T17:23:48.224Z,2.28
2023-03-26T17:26:35.147Z,2.83
2023-03-26T17:29:37.678Z,3.05
2023-03-26T17:34:56.718Z,2.17
2023-03-26T17:37:39.037Z,2.70
2023-03-26T17:40:47.827Z,4.07
2023-03-26T17:43:38.124Z,5.28
2023-03-26T17:46:20.905Z,1.83
2023-03-26T17:48:56.599Z,4.93
2023-03-26T17:51:38.298Z,2.35
2023-03-26T17:54:18.190Z,4.13
2023-03-26T17:56:47.438Z,2.92
2023-03-26T17:59:23.183Z,2.53
2023-03-26T18:01:55.393Z,2.25
2023-03-26T18:04:29.938Z,3.13
2023-03-26T18:07:15.158Z,1.00
2023-03-26T18:10:00.684Z,2.85
2023-03-26T18:12:45.306Z,2.67
2023-03-26T18:15:30.921Z,1.55
2023-03-26T18:18:09.583Z,1.48
2023-03-26T18:20:37.855Z,1.02
2023-03-26T18:23:11.041Z,1.48
2023-03-26T18:25:41.185Z,1.40
2023-03-26T18:28:14.049Z,2.67
2023-03-26T18:30:47.200Z,1.55
2023-03-26T18:33:15.878Z,1.70
2023-03-26T18:35:46.133Z,3.20
2023-03-26T18:38:19.343Z,1.48
2023-03-26T18:41:08.046Z,1.33
2023-03-26T18:43:44.626Z,1.70
2023-03-26T18:46:13.645Z,3.17
2023-03-26T18:48:41.836Z,2.08
2023-03-26T18:51:10.260Z,5.25
2023-03-26T18:53:39.690Z,1.45
2023-03-26T18:56:27.348Z,2.38
2023-03-26T18:58:57.658Z,2.17
2023-03-26T19:01:30.541Z,1.63
2023-03-26T19:03:59.849Z,1.10
2023-03-26T19:06:28.051Z,1.50
2023-03-26T19:08:57.262Z,1.77
2023-03-26T19:11:27.525Z,2.15
2023-03-26T19:14:07.711Z,1.95
2023-03-26T19:16:37.201Z,1.33
2023-03-26T19:19:07.711Z,3.53
2023-03-26T19:21:36.578Z,3.75
2023-03-26T19:24:05.335Z,1.90
2023-03-26T19:26:36.443Z,1.75
2023-03-26T19:29:05.508Z,3.33
2023-03-26T19:31:35.263Z,1.80
2023-03-26T19:34:13.795Z,2.03
2023-03-26T19:36:52.425Z,1.40
2023-03-26T19:39:36.548Z,1.75
2023-03-26T19:42:11.355Z,1.77
2023-03-26T19:44:39.742Z,1.60
2023-03-26T19:47:13.906Z,1.35
2023-03-26T19:49:49.654Z,1.00
2023-03-26T19:52:21.774Z,1.10
2023-03-26T19:55:00.132Z,1.27
2023-03-26T19:57:32.142Z,1.15
2023-03-26T20:00:00.262Z,1.30
2023-03-26T20:02:28.049Z,1.10
2023-03-26T20:04:55.574Z,1.10
2023-03-26T20:07:35.245Z,1.13
2023-03-26T20:10:05.480Z,1.25
2023-03-26T20:12:34.618Z,1.20
2023-03-26T20:17:30.953Z,1.30
2023-03-26T20:22:26.785Z,0.77
2023-03-26T20:24:54.826Z,0.90
2023-03-26T20:27:22.513Z,1.20
2023-03-26T20:29:51.351Z,0.98
2023-03-26T20:32:23.617Z,0.93
2023-03-26T20:34:52.736Z,0.75
2023-03-26T20:37:20.501Z,0.90
2023-03-26T20:39:47.913Z,0.70
2023-03-26T20:42:16.225Z,0.95
2023-03-26T20:44:43.713Z,0.80
2023-03-26T20:47:12.689Z,1.02
2023-03-26T20:49:41.226Z,0.95
2023-03-26T20:52:10.535Z,1.35
2023-03-26T20:54:38.084Z,1.30
2023-03-26T20:57:05.530Z,0.93
2023-03-26T20:59:33.032Z,1.23
2023-03-26T21:02:00.525Z,1.08
2023-03-26T21:04:29.469Z,1.30
2023-03-26T21:09:39.353Z,1.00
2023-03-26T21:12:09.659Z,0.60
2023-03-26T21:14:41.331Z,1.20
2023-03-26T21:17:14.046Z,1.45
2023-03-26T21:19:44.042Z,1.33
2023-03-26T21:22:25.679Z,1.38
2023-03-26T21:25:08.124Z,0.95
2023-03-26T21:27:45.842Z,0.75
2023-03-26T21:30:16.157Z,1.10
2023-03-26T21:32:45.368Z,0.75
2023-03-26T21:35:16.244Z,1.20
2023-03-26T21:37:48.435Z,0.93
2023-03-26T21:40:17.905Z,0.80
2023-03-26T21:42:47.470Z,1.10
2023-03-26T21:45:15.770Z,1.48
2023-03-26T21:47:44.047Z,1.80
2023-03-26T21:50:13.017Z,0.85
2023-03-26T21:52:47.145Z,1.40
2023-03-26T21:55:16.628Z,1.05
2023-03-26T21:57:58.661Z,1.02
2023-03-26T22:00:42.843Z,1.02
2023-03-26T22:03:18.476Z,1.50
2023-03-26T22:05:51.434Z,1.00
2023-03-26T22:08:27.265Z,1.25
2023-03-26T22:10:55.426Z,1.40
2023-03-26T22:13:23.127Z,1.30
2023-03-26T22:15:50.932Z,1.65
2023-03-26T22:18:21.481Z,1.45
2023-03-26T22:20:49.152Z,1.77
2023-03-26T22:23:16.788Z,1.70
2023-03-26T22:25:46.618Z,1.65
2023-03-26T22:28:14.475Z,2.30
2023-03-26T22:30:42.323Z,1.80
2023-03-26T22:33:12.461Z,2.17
2023-03-26T22:35:41.957Z,3.53
2023-03-26T22:38:09.897Z,2.25
2023-03-26T22:40:37.640Z,2.47
2023-03-26T22:43:07.386Z,2.60
2023-03-26T22:45:37.929Z,2.33
2023-03-26T22:48:05.714Z,2.00
2023-03-26T22:50:33.632Z,4.05
2023-03-26T22:53:01.192Z,3.05
2023-03-26T22:55:29.929Z,2.47
2023-03-26T22:57:57.751Z,2.10
2023-03-26T23:00:26.786Z,1.88
2023-03-26T23:03:00.071Z,1.50
2023-03-26T23:05:31.301Z,1.50
2023-03-26T23:07:58.789Z,1.42
2023-03-26T23:10:26.345Z,2.10
2023-03-26T23:12:53.853Z,2.97
2023-03-26T23:15:22.132Z,2.60
2023-03-26T23:17:55.044Z,2.58
2023-03-26T23:20:22.819Z,2.38
2023-03-26T23:22:50.591Z,2.88
2023-03-26T23:25:18.320Z,1.98
2023-03-26T23:27:45.770Z,2.03
2023-03-26T23:30:14.967Z,2.00
2023-03-26T23:32:42.510Z,2.72
2023-03-26T23:35:11.886Z,1.90
2023-03-26T23:37:42.231Z,2.15
2023-03-26T23:40:11.028Z,2.00
2023-03-26T23:42:38.480Z,1.50
2023-03-26T23:45:08.435Z,2.05
2023-03-26T23:47:36.257Z,1.65
2023-03-26T23:50:04.850Z,1.80
2023-03-26T23:52:33.708Z,1.80
2023-03-26T23:55:01.223Z,1.58
2023-03-26T23:57:29.011Z,2.00
2023-03-26T23:59:56.611Z,1.63
